Aviation Digital Data Service (ADDS)

Output produced by METARs form (1627 UTC 03 June 2020)
found at http://www.aviationweather.gov/metar/data/
 
METAR text: RJFE 031000Z VRB02KT 9999 FEW010 SCT150 BKN170 21/19 Q1005
Conditions at: RJFE (FUKUE AIRPORT , JP) observed 1000 UTC 03 June 2020
Temperature: 21.0°C (70°F)
Dewpoint: 19.0°C (66°F) [RH = 88%]
Pressure (altimeter): 29.68 inches Hg (1005.0 mb)
Winds: variable direction winds at 2 MPH (2 knots; 1.0 m/s)
Visibility: 6 or more miles (10+ km)
Ceiling: 17000 feet AGL
Clouds: few clouds at 1000 feet AGL
scattered clouds at 15000 feet AGL
broken clouds at 17000 feet AGL
Weather: no significant weather observed at this time

METAR text: RJFE 030900Z 23004KT 170V270 9999 FEW008 SCT090 BKN110 21/19 Q1005
Conditions at: RJFE (FUKUE AIRPORT , JP) observed 0900 UTC 03 June 2020
Temperature: 21.0°C (70°F)
Dewpoint: 19.0°C (66°F) [RH = 88%]
Pressure (altimeter): 29.68 inches Hg (1005.0 mb)
Winds: from the SW (230 degrees) at 5 MPH (4 knots; 2.1 m/s)
Visibility: 6 or more miles (10+ km)
Ceiling: 11000 feet AGL
Clouds: few clouds at 800 feet AGL
scattered clouds at 9000 feet AGL
broken clouds at 11000 feet AGL
Weather: no significant weather observed at this time

METAR text: RJFE 030812Z 23008KT 9999 -RA FEW006 SCT008 BKN120 21/20 Q1005 RMK 1ST006 3ST008 7AS120 A2968
Conditions at: RJFE (FUKUE AIRPORT , JP) observed 0812 UTC 03 June 2020
Temperature: 21.0°C (70°F)
Dewpoint: 20.0°C (68°F) [RH = 94%]
Pressure (altimeter): 29.68 inches Hg (1005.0 mb)
Winds: from the SW (230 degrees) at 9 MPH (8 knots; 4.1 m/s)
Visibility: 6 or more miles (10+ km)
Ceiling: 12000 feet AGL
Clouds: few clouds at 600 feet AGL
scattered clouds at 800 feet AGL
broken clouds at 12000 feet AGL
Weather: -RA  (light rain)

METAR text: RJFE 030800Z 23009KT 9999 -SHRA FEW004 SCT006 BKN008 21/20 Q1005
Conditions at: RJFE (FUKUE AIRPORT , JP) observed 0800 UTC 03 June 2020
Temperature: 21.0°C (70°F)
Dewpoint: 20.0°C (68°F) [RH = 94%]
Pressure (altimeter): 29.68 inches Hg (1005.0 mb)
Winds: from the SW (230 degrees) at 10 MPH (9 knots; 4.6 m/s)
Visibility: 6 or more miles (10+ km)
Ceiling: 800 feet AGL
Clouds: few clouds at 400 feet AGL
scattered clouds at 600 feet AGL
broken clouds at 800 feet AGL
Weather: -SHRA  (light rain showers)

METAR text: RJFE 030716Z 21011KT 9999 FEW002 SCT004 BKN006 21/21 Q1004 RMK 1ST002 3ST004 5ST006 A2966
Conditions at: RJFE (FUKUE AIRPORT , JP) observed 0716 UTC 03 June 2020
Temperature: 21.0°C (70°F)
Dewpoint: 21.0°C (70°F) [RH = 100%]
Pressure (altimeter): 29.65 inches Hg (1004.0 mb)
Winds: from the SSW (210 degrees) at 13 MPH (11 knots; 5.7 m/s)
Visibility: 6 or more miles (10+ km)
Ceiling: 600 feet AGL
Clouds: few clouds at 200 feet AGL
scattered clouds at 400 feet AGL
broken clouds at 600 feet AGL
Weather: no significant weather observed at this time

METAR text: RJFE 030700Z 21010G20KT 9999 FEW002 SCT003 BKN004 22/22 Q1004
Conditions at: RJFE (FUKUE AIRPORT , JP) observed 0700 UTC 03 June 2020
Temperature: 22.0°C (72°F)
Dewpoint: 22.0°C (72°F) [RH = 100%]
Pressure (altimeter): 29.65 inches Hg (1004.0 mb)
Winds: from the SSW (210 degrees) at 12 MPH (10 knots; 5.1 m/s)
gusting to 23 MPH (20 knots; 10.3 m/s)
Visibility: 6 or more miles (10+ km)
Ceiling: 400 feet AGL
Clouds: few clouds at 200 feet AGL
scattered clouds at 300 feet AGL
broken clouds at 400 feet AGL
Weather: no significant weather observed at this time

METAR text: RJFE 030630Z 20007KT 5000 BR FEW001 SCT002 BKN003 23/22 Q1004 RMK 1ST001 4ST002 5ST003 A2965
Conditions at: RJFE (FUKUE AIRPORT , JP) observed 0630 UTC 03 June 2020
Temperature: 23.0°C (73°F)
Dewpoint: 22.0°C (72°F) [RH = 94%]
Pressure (altimeter): 29.65 inches Hg (1004.0 mb)
Winds: from the SSW (200 degrees) at 8 MPH (7 knots; 3.6 m/s)
Visibility: 3 miles ( 5 km)
Ceiling: 300 feet AGL
Clouds: few clouds at 100 feet AGL
scattered clouds at 200 feet AGL
broken clouds at 300 feet AGL
Weather: BR  (mist)

METAR text: RJFE 030611Z 18007KT 1000 BR SCT001 BKN002 22/22 Q1004 RMK 3ST001 6ST002 A2965
Conditions at: RJFE (FUKUE AIRPORT , JP) observed 0611 UTC 03 June 2020
Temperature: 22.0°C (72°F)
Dewpoint: 22.0°C (72°F) [RH = 100%]
Pressure (altimeter): 29.65 inches Hg (1004.0 mb)
Winds: from the S (180 degrees) at 8 MPH (7 knots; 3.6 m/s)
Visibility: 0.62 miles (1.00 km)
Ceiling: 200 feet AGL
Clouds: scattered clouds at 100 feet AGL
broken clouds at 200 feet AGL
Weather: BR  (mist)

METAR text: RJFE 030600Z 18006KT 4000 -SHRA BR FEW001 BKN002 BKN003 22/22 Q1004
Conditions at: RJFE (FUKUE AIRPORT , JP) observed 0600 UTC 03 June 2020
Temperature: 22.0°C (72°F)
Dewpoint: 22.0°C (72°F) [RH = 100%]
Pressure (altimeter): 29.65 inches Hg (1004.0 mb)
Winds: from the S (180 degrees) at 7 MPH (6 knots; 3.1 m/s)
Visibility: 2.49 miles (4.01 km)
Ceiling: 200 feet AGL
Clouds: few clouds at 100 feet AGL
broken clouds at 200 feet AGL
broken clouds at 300 feet AGL
Weather: -SHRA BR  (light rain showers, mist)

METAR text: RJFE 030500Z 16006KT 120V210 7000 -RA FEW003 SCT006 BKN100 22/22 Q1005
Conditions at: RJFE (FUKUE AIRPORT , JP) observed 0500 UTC 03 June 2020
Temperature: 22.0°C (72°F)
Dewpoint: 22.0°C (72°F) [RH = 100%]
Pressure (altimeter): 29.68 inches Hg (1005.0 mb)
Winds: from the SSE (160 degrees) at 7 MPH (6 knots; 3.1 m/s)
Visibility: 4 miles ( 7 km)
Ceiling: 10000 feet AGL
Clouds: few clouds at 300 feet AGL
scattered clouds at 600 feet AGL
broken clouds at 10000 feet AGL
Weather: -RA  (light rain)

METAR text: RJFE 030400Z 36004KT 320V030 6000 -SHRA FEW003 SCT004 BKN005 22/21 Q1006
Conditions at: RJFE (FUKUE AIRPORT , JP) observed 0400 UTC 03 June 2020
Temperature: 22.0°C (72°F)
Dewpoint: 21.0°C (70°F) [RH = 94%]
Pressure (altimeter): 29.70 inches Hg (1006.0 mb)
Winds: from the N (360 degrees) at 5 MPH (4 knots; 2.1 m/s)
Visibility: 4 miles ( 6 km)
Ceiling: 500 feet AGL
Clouds: few clouds at 300 feet AGL
scattered clouds at 400 feet AGL
broken clouds at 500 feet AGL
Weather: -SHRA  (light rain showers)

METAR text: RJFE 030300Z VRB03KT 8000 FEW004 SCT005 BKN006 22/21 Q1006
Conditions at: RJFE (FUKUE AIRPORT , JP) observed 0300 UTC 03 June 2020
Temperature: 22.0°C (72°F)
Dewpoint: 21.0°C (70°F) [RH = 94%]
Pressure (altimeter): 29.70 inches Hg (1006.0 mb)
Winds: variable direction winds at 3 MPH (3 knots; 1.5 m/s)
Visibility: 5 miles ( 8 km)
Ceiling: 600 feet AGL
Clouds: few clouds at 400 feet AGL
scattered clouds at 500 feet AGL
broken clouds at 600 feet AGL
Weather: no significant weather observed at this time

METAR text: RJFE 030200Z 16007KT 120V210 7000 FEW004 SCT007 BKN010 23/22 Q1007
Conditions at: RJFE (FUKUE AIRPORT , JP) observed 0200 UTC 03 June 2020
Temperature: 23.0°C (73°F)
Dewpoint: 22.0°C (72°F) [RH = 94%]
Pressure (altimeter): 29.73 inches Hg (1007.0 mb)
Winds: from the SSE (160 degrees) at 8 MPH (7 knots; 3.6 m/s)
Visibility: 4 miles ( 7 km)
Ceiling: 1000 feet AGL
Clouds: few clouds at 400 feet AGL
scattered clouds at 700 feet AGL
broken clouds at 1000 feet AGL
Weather: no significant weather observed at this time

METAR text: RJFE 030100Z 13007KT 100V180 3500 -DZ BR FEW004 SCT010 BKN015 22/21 Q1006
Conditions at: RJFE (FUKUE AIRPORT , JP) observed 0100 UTC 03 June 2020
Temperature: 22.0°C (72°F)
Dewpoint: 21.0°C (70°F) [RH = 94%]
Pressure (altimeter): 29.70 inches Hg (1006.0 mb)
Winds: from the SE (130 degrees) at 8 MPH (7 knots; 3.6 m/s)
Visibility: 2.17 miles (3.49 km)
Ceiling: 1500 feet AGL
Clouds: few clouds at 400 feet AGL
scattered clouds at 1000 feet AGL
broken clouds at 1500 feet AGL
Weather: -DZ BR  (light drizzle, mist)

METAR text: RJFE 030000Z 13006KT 060V180 2500 -DZ BR FEW001 SCT002 BKN003 21/21 Q1006
Conditions at: RJFE (FUKUE AIRPORT , JP) observed 0000 UTC 03 June 2020
Temperature: 21.0°C (70°F)
Dewpoint: 21.0°C (70°F) [RH = 100%]
Pressure (altimeter): 29.70 inches Hg (1006.0 mb)
Winds: from the SE (130 degrees) at 7 MPH (6 knots; 3.1 m/s)
Visibility: 1.55 miles (2.49 km)
Ceiling: 300 feet AGL
Clouds: few clouds at 100 feet AGL
scattered clouds at 200 feet AGL
broken clouds at 300 feet AGL
Weather: -DZ BR  (light drizzle, mist)

METAR text: RJFE 022300Z 12003KT 040V200 1500 -DZ BR FEW001 SCT002 BKN003 21/21 Q1006
Conditions at: RJFE (FUKUE AIRPORT , JP) observed 2300 UTC 02 June 2020
Temperature: 21.0°C (70°F)
Dewpoint: 21.0°C (70°F) [RH = 100%]
Pressure (altimeter): 29.70 inches Hg (1006.0 mb)
Winds: from the ESE (120 degrees) at 3 MPH (3 knots; 1.5 m/s)
Visibility: 0.93 miles (1.50 km)
Ceiling: 300 feet AGL
Clouds: few clouds at 100 feet AGL
scattered clouds at 200 feet AGL
broken clouds at 300 feet AGL
Weather: -DZ BR  (light drizzle, mist)

METAR text: RJFE 021000Z 15005KT 120V180 9999 FEW008 SCT015 21/19 Q1008
Conditions at: RJFE (FUKUE AIRPORT , JP) observed 1000 UTC 02 June 2020
Temperature: 21.0°C (70°F)
Dewpoint: 19.0°C (66°F) [RH = 88%]
Pressure (altimeter): 29.76 inches Hg (1008.0 mb)
Winds: from the SSE (150 degrees) at 6 MPH (5 knots; 2.6 m/s)
Visibility: 6 or more miles (10+ km)
Ceiling: at least 12,000 feet AGL
Clouds: few clouds at 800 feet AGL
scattered clouds at 1500 feet AGL
Weather: no significant weather observed at this time

METAR text: RJFE 020900Z 17005KT 120V230 9999 FEW010 SCT015 BKN020 22/20 Q1008
Conditions at: RJFE (FUKUE AIRPORT , JP) observed 0900 UTC 02 June 2020
Temperature: 22.0°C (72°F)
Dewpoint: 20.0°C (68°F) [RH = 88%]
Pressure (altimeter): 29.76 inches Hg (1008.0 mb)
Winds: from the S (170 degrees) at 6 MPH (5 knots; 2.6 m/s)
Visibility: 6 or more miles (10+ km)
Ceiling: 2000 feet AGL
Clouds: few clouds at 1000 feet AGL
scattered clouds at 1500 feet AGL
broken clouds at 2000 feet AGL
Weather: no significant weather observed at this time

METAR text: RJFE 020800Z 23006KT 170V270 9999 FEW010 SCT015 23/19 Q1008
Conditions at: RJFE (FUKUE AIRPORT , JP) observed 0800 UTC 02 June 2020
Temperature: 23.0°C (73°F)
Dewpoint: 19.0°C (66°F) [RH = 78%]
Pressure (altimeter): 29.76 inches Hg (1008.0 mb)
Winds: from the SW (230 degrees) at 7 MPH (6 knots; 3.1 m/s)
Visibility: 6 or more miles (10+ km)
Ceiling: at least 12,000 feet AGL
Clouds: few clouds at 1000 feet AGL
scattered clouds at 1500 feet AGL
Weather: no significant weather observed at this time

METAR text: RJFE 020700Z 21009KT 170V240 9999 FEW015 SCT/// 24/20 Q1008
Conditions at: RJFE (FUKUE AIRPORT , JP) observed 0700 UTC 02 June 2020
Temperature: 24.0°C (75°F)
Dewpoint: 20.0°C (68°F) [RH = 78%]
Pressure (altimeter): 29.76 inches Hg (1008.0 mb)
Winds: from the SSW (210 degrees) at 10 MPH (9 knots; 4.6 m/s)
Visibility: 6 or more miles (10+ km)
Ceiling: at least 12,000 feet AGL
Clouds: few clouds at 1500 feet AGL
Weather: no significant weather observed at this time

METAR text: RJFE 020600Z 20009KT 170V240 9999 FEW020 SCT/// 23/18 Q1009
Conditions at: RJFE (FUKUE AIRPORT , JP) observed 0600 UTC 02 June 2020
Temperature: 23.0°C (73°F)
Dewpoint: 18.0°C (64°F) [RH = 73%]
Pressure (altimeter): 29.79 inches Hg (1009.0 mb)
Winds: from the SSW (200 degrees) at 10 MPH (9 knots; 4.6 m/s)
Visibility: 6 or more miles (10+ km)
Ceiling: at least 12,000 feet AGL
Clouds: few clouds at 2000 feet AGL
Weather: no significant weather observed at this time

METAR text: RJFE 020500Z 19010KT 160V230 9999 FEW020 SCT/// 23/18 Q1009
Conditions at: RJFE (FUKUE AIRPORT , JP) observed 0500 UTC 02 June 2020
Temperature: 23.0°C (73°F)
Dewpoint: 18.0°C (64°F) [RH = 73%]
Pressure (altimeter): 29.79 inches Hg (1009.0 mb)
Winds: from the S (190 degrees) at 12 MPH (10 knots; 5.1 m/s)
Visibility: 6 or more miles (10+ km)
Ceiling: at least 12,000 feet AGL
Clouds: few clouds at 2000 feet AGL
Weather: no significant weather observed at this time